createdAt,value
2023-01-19T00:00:03.053Z,75
2023-01-19T00:20:02.718Z,75
2023-01-19T00:40:03.203Z,75
2023-01-19T01:00:02.687Z,74
2023-01-19T01:20:02.488Z,74
2023-01-19T01:40:02.996Z,73
2023-01-19T02:00:02.536Z,73
2023-01-19T02:20:02.289Z,73
2023-01-19T02:40:02.964Z,72
2023-01-19T03:00:02.377Z,73
2023-01-19T03:20:02.963Z,73
2023-01-19T03:40:02.542Z,74
2023-01-19T04:00:02.771Z,74
2023-01-19T04:20:02.436Z,74
2023-01-19T04:40:02.719Z,74
2023-01-19T05:00:03.198Z,74
2023-01-19T05:20:02.722Z,73
2023-01-19T05:40:03.003Z,73
2023-01-19T06:00:02.545Z,73
2023-01-19T06:20:02.344Z,73
2023-01-19T06:40:02.741Z,74
2023-01-19T07:00:02.485Z,74
2023-01-19T07:20:03.114Z,73
2023-01-19T07:40:02.476Z,72
2023-01-19T08:00:03.205Z,72
2023-01-19T08:20:02.837Z,73
2023-01-19T08:40:03.170Z,74
2023-01-19T09:00:02.921Z,75
2023-01-19T09:20:02.809Z,76
2023-01-19T09:40:03.412Z,77
2023-01-19T10:00:03.535Z,77
2023-01-19T10:20:02.610Z,75
2023-01-19T10:40:02.915Z,74
2023-01-19T11:00:02.612Z,72
2023-01-19T11:20:02.950Z,70
2023-01-19T11:40:02.383Z,69
2023-01-19T12:00:03.377Z,68
2023-01-19T12:20:02.450Z,67
2023-01-19T12:40:03.067Z,66
2023-01-19T13:00:02.941Z,67
2023-01-19T13:20:02.344Z,66
2023-01-19T13:40:03.605Z,67
2023-01-19T14:00:03.067Z,69
2023-01-19T14:20:02.694Z,70
2023-01-19T14:40:03.293Z,71
2023-01-19T15:00:03.416Z,72
2023-01-19T15:20:03.054Z,73
2023-01-19T15:40:02.609Z,73
2023-01-19T16:00:03.310Z,74
2023-01-19T16:20:03.074Z,74
2023-01-19T16:40:02.648Z,74
2023-01-19T17:00:03.042Z,74
2023-01-19T17:20:02.796Z,74
2023-01-19T17:40:03.187Z,74
2023-01-19T18:00:03.195Z,74
2023-01-19T18:20:02.677Z,74
2023-01-19T18:40:03.124Z,75
2023-01-19T19:00:02.661Z,75
2023-01-19T19:20:03.305Z,75
2023-01-19T19:40:03.050Z,75
2023-01-19T20:00:02.793Z,76
2023-01-19T20:20:02.438Z,76
2023-01-19T20:40:02.907Z,76
2023-01-19T21:00:02.734Z,77
2023-01-19T21:20:02.366Z,77
2023-01-19T21:40:02.792Z,77
2023-01-19T22:00:03.224Z,77
2023-01-19T22:20:02.808Z,77
2023-01-19T22:40:03.029Z,78
2023-01-19T23:00:02.556Z,78
2023-01-19T23:20:03.290Z,78
2023-01-19T23:40:02.578Z,79
